createdAt,value
2017-10-19T00:01:01.602Z,76.57
2017-10-19T00:02:08.913Z,82.80
2017-10-19T00:03:14.715Z,73.25
2017-10-19T00:04:22.014Z,74.90
2017-10-19T00:05:28.587Z,74.53
2017-10-19T00:06:35.170Z,74.55
2017-10-19T00:07:40.950Z,79.82
2017-10-19T00:08:46.545Z,82.93
2017-10-19T00:09:52.326Z,83.22
2017-10-19T00:10:58.152Z,79.95
2017-10-19T00:12:03.952Z,73.03
2017-10-19T00:13:09.737Z,74.78
2017-10-19T00:14:15.531Z,77.60
2017-10-19T00:15:22.093Z,81.72
2017-10-19T00:16:28.681Z,79.35
2017-10-19T00:17:34.464Z,80.75
2017-10-19T00:18:40.239Z,76.90
2017-10-19T00:19:46.037Z,75.82
2017-10-19T00:20:51.832Z,78.37
2017-10-19T00:21:57.666Z,79.40
2017-10-19T00:23:04.216Z,76.07
2017-10-19T00:24:10.769Z,77.25
2017-10-19T00:25:17.320Z,73.28
2017-10-19T00:26:24.658Z,72.85
2017-10-19T00:27:30.459Z,75.68
2017-10-19T00:28:37.008Z,81.22
2017-10-19T00:29:42.799Z,73.68
2017-10-19T00:30:48.576Z,73.47
2017-10-19T00:31:54.349Z,76.47
2017-10-19T00:33:00.928Z,74.62
2017-10-19T00:34:06.727Z,72.32
2017-10-19T00:35:12.504Z,69.70
2017-10-19T00:36:18.301Z,72.62
2017-10-19T00:37:24.087Z,79.35
2017-10-19T00:38:30.667Z,81.32
2017-10-19T00:39:36.457Z,82.57
2017-10-19T00:40:43.009Z,75.28
2017-10-19T00:41:48.808Z,74.50
2017-10-19T00:42:54.596Z,69.82
2017-10-19T00:44:00.406Z,77.32
2017-10-19T00:45:06.196Z,76.75
2017-10-19T00:46:12.026Z,77.78
2017-10-19T00:47:17.810Z,82.30
2017-10-19T00:48:24.351Z,83.55
2017-10-19T00:49:30.932Z,79.22
2017-10-19T00:50:36.727Z,76.03
2017-10-19T00:51:42.507Z,83.75
2017-10-19T00:52:49.060Z,85.15
2017-10-19T00:53:55.616Z,89.75
2017-10-19T00:55:02.195Z,86.87
2017-10-19T00:56:07.307Z,91.00
2017-10-19T00:57:13.533Z,87.30
2017-10-19T00:58:19.338Z,93.32
2017-10-19T00:59:24.427Z,86.20
2017-10-19T01:00:30.680Z,104.50
2017-10-19T01:01:37.368Z,91.57
2017-10-19T01:02:43.155Z,100.03
2017-10-19T01:03:48.954Z,101.07
2017-10-19T01:04:54.773Z,98.82
2017-10-19T01:06:01.502Z,99.13
2017-10-19T01:07:08.840Z,111.25
2017-10-19T01:08:14.649Z,101.43
2017-10-19T01:09:20.428Z,113.18
2017-10-19T01:10:26.238Z,105.43
2017-10-19T01:11:32.829Z,109.65
2017-10-19T01:12:38.624Z,104.93
2017-10-19T01:13:45.934Z,111.30
2017-10-19T01:14:51.732Z,104.65
2017-10-19T01:15:58.351Z,114.35
2017-10-19T01:17:04.176Z,102.50
2017-10-19T01:18:10.725Z,101.57
2017-10-19T01:19:17.295Z,97.37
2017-10-19T01:20:23.504Z,95.15
2017-10-19T01:21:28.951Z,99.78
2017-10-19T01:22:34.446Z,92.25
2017-10-19T01:23:39.712Z,102.32
2017-10-19T01:24:45.179Z,103.15
2017-10-19T01:25:51.402Z,98.18
2017-10-19T01:26:56.493Z,98.97
2017-10-19T01:28:01.987Z,99.85
2017-10-19T01:29:08.571Z,100.93
2017-10-19T01:30:13.686Z,112.05
2017-10-19T01:31:19.902Z,110.05
2017-10-19T01:32:25.389Z,110.30
2017-10-19T01:33:30.876Z,107.32
2017-10-19T01:34:36.749Z,102.12
2017-10-19T01:35:43.332Z,106.82
2017-10-19T01:36:48.460Z,108.35
2017-10-19T01:37:53.927Z,100.28
2017-10-19T01:38:59.080Z,104.50
2017-10-19T01:40:04.575Z,110.45
2017-10-19T01:41:10.078Z,107.20
2017-10-19T01:42:15.961Z,102.38
2017-10-19T01:43:21.167Z,105.43
2017-10-19T01:44:26.126Z,119.40
2017-10-19T01:45:31.237Z,117.50
2017-10-19T01:46:36.699Z,116.20
2017-10-19T01:47:42.920Z,115.32
2017-10-19T01:48:48.721Z,119.93
2017-10-19T01:50:01.010Z,113.10
2017-10-19T01:51:06.697Z,118.32
2017-10-19T01:52:12.166Z,109.45
2017-10-19T01:53:18.780Z,111.30
2017-10-19T01:54:24.571Z,122.05
2017-10-19T01:55:30.399Z,107.97
2017-10-19T01:56:36.192Z,112.37
2017-10-19T01:57:42.001Z,111.10
2017-10-19T01:58:47.793Z,116.57
2017-10-19T01:59:53.580Z,115.82
2017-10-19T02:00:59.400Z,109.97
2017-10-19T02:02:05.195Z,107.10
2017-10-19T02:03:10.999Z,111.78
2017-10-19T02:04:16.454Z,117.57
2017-10-19T02:05:23.039Z,110.82
2017-10-19T02:06:28.856Z,113.47
2017-10-19T02:07:35.435Z,111.05
2017-10-19T02:08:41.242Z,110.00
2017-10-19T02:09:47.064Z,104.82
2017-10-19T02:10:52.847Z,107.85
2017-10-19T02:11:59.453Z,108.65
2017-10-19T02:13:05.392Z,100.20
2017-10-19T02:14:11.179Z,102.65
2017-10-19T02:15:16.969Z,95.70
2017-10-19T02:16:22.775Z,98.40
2017-10-19T02:17:29.392Z,98.60
2017-10-19T02:18:35.208Z,96.07
2017-10-19T02:19:41.001Z,95.55
2017-10-19T02:20:46.791Z,95.85
2017-10-19T02:21:52.576Z,96.25
2017-10-19T02:22:58.410Z,95.15
2017-10-19T02:24:04.190Z,88.55
2017-10-19T02:25:10.001Z,81.53
2017-10-19T02:26:15.786Z,88.90
2017-10-19T02:27:21.564Z,85.60
2017-10-19T02:28:27.393Z,87.53
2017-10-19T02:29:33.180Z,91.95
2017-10-19T02:30:38.969Z,85.72
2017-10-19T02:31:45.528Z,86.65
2017-10-19T02:32:52.088Z,95.43
2017-10-19T02:33:58.720Z,86.85
2017-10-19T02:35:04.501Z,83.12
2017-10-19T02:36:10.365Z,83.87
2017-10-19T02:37:16.156Z,89.15
2017-10-19T02:38:22.719Z,86.12
2017-10-19T02:39:30.037Z,83.35
2017-10-19T02:40:35.633Z,84.22
2017-10-19T02:41:42.919Z,85.22
2017-10-19T02:42:48.711Z,82.78
2017-10-19T02:43:54.500Z,88.10
2017-10-19T02:45:01.083Z,92.10
2017-10-19T02:46:06.867Z,88.05
2017-10-19T02:47:12.648Z,87.55
2017-10-19T02:48:19.204Z,92.93
2017-10-19T02:49:25.004Z,85.10
2017-10-19T02:50:30.464Z,92.90
2017-10-19T02:51:37.011Z,96.55
2017-10-19T02:52:42.791Z,92.28
2017-10-19T02:53:49.371Z,88.80
2017-10-19T02:54:55.931Z,87.03
2017-10-19T02:56:01.803Z,94.53
2017-10-19T02:57:06.912Z,88.12
2017-10-19T02:58:12.703Z,82.43
2017-10-19T02:59:18.517Z,87.90
2017-10-19T03:00:24.338Z,88.20
2017-10-19T03:01:30.139Z,83.45
2017-10-19T03:02:35.927Z,81.53
2017-10-19T03:03:41.719Z,82.43
2017-10-19T03:04:47.500Z,88.07
2017-10-19T03:05:53.712Z,83.12
2017-10-19T03:07:00.302Z,89.97
2017-10-19T03:08:06.840Z,84.85
2017-10-19T03:09:12.731Z,82.22
2017-10-19T03:10:18.160Z,83.00
2017-10-19T03:11:23.943Z,83.10
2017-10-19T03:12:29.774Z,76.43
2017-10-19T03:13:35.234Z,81.03
2017-10-19T03:14:41.011Z,76.90
2017-10-19T03:15:47.570Z,85.30
2017-10-19T03:16:54.120Z,74.22
2017-10-19T03:18:00.716Z,76.78
2017-10-19T03:19:06.496Z,74.70
2017-10-19T03:20:12.294Z,77.15
2017-10-19T03:21:18.120Z,74.47
2017-10-19T03:22:24.811Z,81.55
2017-10-19T03:23:30.647Z,77.72
2017-10-19T03:24:36.431Z,73.07
2017-10-19T03:25:42.222Z,81.43
2017-10-19T03:26:48.001Z,75.78
2017-10-19T03:27:53.777Z,77.45
2017-10-19T03:28:59.607Z,93.40
2017-10-19T03:30:05.425Z,69.20
2017-10-19T03:31:11.219Z,69.47
2017-10-19T03:32:17.776Z,72.75
2017-10-19T03:33:24.331Z,72.35
2017-10-19T03:34:30.912Z,69.28
2017-10-19T03:35:36.697Z,70.07
2017-10-19T03:36:42.480Z,67.15
2017-10-19T03:37:49.031Z,69.40
2017-10-19T03:38:55.243Z,74.95
2017-10-19T03:40:01.059Z,70.97
2017-10-19T03:41:06.854Z,70.93
2017-10-19T03:42:12.627Z,66.07
2017-10-19T03:43:18.427Z,64.40
2017-10-19T03:44:24.215Z,63.53
2017-10-19T03:45:30.077Z,64.40
2017-10-19T03:46:35.887Z,66.32
2017-10-19T03:47:42.440Z,65.28
2017-10-19T03:48:48.219Z,64.95
2017-10-19T03:49:54.003Z,64.35
2017-10-19T03:50:59.901Z,62.92
2017-10-19T03:52:05.361Z,63.55
2017-10-19T03:53:11.152Z,59.28
2017-10-19T03:54:17.725Z,60.40
2017-10-19T03:55:24.276Z,61.50
2017-10-19T03:56:30.876Z,65.18
2017-10-19T03:57:36.683Z,63.85
2017-10-19T03:58:44.185Z,66.28
2017-10-19T03:59:49.988Z,62.17
2017-10-19T04:00:55.790Z,64.15
2017-10-19T04:02:01.600Z,65.28
2017-10-19T04:03:08.153Z,62.35
2017-10-19T04:04:13.953Z,63.60
2017-10-19T04:05:19.737Z,63.75
2017-10-19T04:06:27.367Z,60.88
2017-10-19T04:07:33.508Z,63.10
2017-10-19T04:08:39.299Z,63.67
2017-10-19T04:09:45.088Z,60.10
2017-10-19T04:10:50.873Z,63.45
2017-10-19T04:11:56.663Z,62.08
2017-10-19T04:13:02.484Z,65.82
2017-10-19T04:14:09.054Z,64.07
2017-10-19T04:15:14.856Z,61.05
2017-10-19T04:16:20.642Z,60.95
2017-10-19T04:17:26.426Z,60.83
2017-10-19T04:18:32.247Z,64.05
2017-10-19T04:19:38.048Z,61.13
2017-10-19T04:20:43.836Z,64.00
2017-10-19T04:21:49.644Z,62.05
2017-10-19T04:22:55.438Z,64.78
2017-10-19T04:24:01.269Z,63.08
2017-10-19T04:25:07.049Z,71.05
2017-10-19T04:26:12.889Z,65.93
2017-10-19T04:27:18.680Z,64.50
2017-10-19T04:28:24.464Z,61.95
2017-10-19T04:29:30.282Z,62.95
2017-10-19T04:30:36.070Z,66.70
2017-10-19T04:31:42.638Z,62.42
2017-10-19T04:32:49.009Z,65.95
2017-10-19T04:33:54.828Z,66.55
2017-10-19T04:35:00.642Z,69.82
2017-10-19T04:36:06.432Z,62.08
2017-10-19T04:37:12.979Z,68.65
2017-10-19T04:38:19.531Z,62.85
2017-10-19T04:39:25.511Z,61.05
2017-10-19T04:40:31.331Z,69.07
2017-10-19T04:41:37.892Z,66.68
2017-10-19T04:42:44.455Z,64.28
2017-10-19T04:43:51.015Z,63.95
2017-10-19T04:44:57.560Z,66.50
2017-10-19T04:46:03.371Z,62.90
2017-10-19T04:47:10.004Z,65.55
2017-10-19T04:48:15.796Z,73.78
2017-10-19T04:49:21.441Z,65.25
2017-10-19T04:50:28.003Z,64.40
2017-10-19T04:51:33.664Z,65.32
2017-10-19T04:52:40.232Z,75.50
2017-10-19T04:53:46.033Z,69.65
2017-10-19T04:54:51.827Z,68.50
2017-10-19T04:55:57.623Z,68.87
2017-10-19T04:57:03.467Z,70.10
2017-10-19T04:58:09.514Z,61.47
2017-10-19T04:59:15.117Z,65.62
2017-10-19T05:00:20.908Z,61.92
2017-10-19T05:01:26.700Z,62.80
2017-10-19T05:02:32.517Z,66.12
2017-10-19T05:03:39.083Z,64.97
2017-10-19T05:04:45.039Z,63.22
2017-10-19T05:05:50.828Z,64.55
2017-10-19T05:06:56.644Z,65.72
2017-10-19T05:08:02.332Z,63.05
2017-10-19T05:09:08.136Z,67.65
2017-10-19T05:10:13.951Z,61.80
2017-10-19T05:11:19.404Z,67.55
2017-10-19T05:12:25.206Z,58.50
2017-10-19T05:13:31.454Z,67.80
2017-10-19T05:14:38.018Z,60.60
2017-10-19T05:15:44.581Z,59.08
2017-10-19T05:16:51.145Z,65.90
2017-10-19T05:17:57.712Z,60.20
2017-10-19T05:19:03.519Z,65.18
2017-10-19T05:20:09.323Z,62.03
2017-10-19T05:21:15.105Z,60.88
2017-10-19T05:22:20.896Z,61.10
2017-10-19T05:23:26.696Z,65.22
2017-10-19T05:24:32.929Z,63.33
2017-10-19T05:25:38.712Z,65.72
2017-10-19T05:26:44.530Z,62.97
2017-10-19T05:27:51.128Z,66.55
2017-10-19T05:28:56.907Z,58.53
2017-10-19T05:30:02.829Z,60.10
2017-10-19T05:31:08.785Z,56.67
2017-10-19T05:32:14.668Z,70.20
2017-10-19T05:33:20.567Z,62.70
2017-10-19T05:34:30.965Z,62.60
2017-10-19T05:35:36.861Z,59.88
2017-10-19T05:36:42.688Z,52.92
2017-10-19T05:37:48.712Z,57.72
2017-10-19T05:38:55.428Z,59.33
2017-10-19T05:40:01.312Z,63.58
2017-10-19T05:41:08.550Z,58.75
2017-10-19T05:42:14.376Z,58.65
2017-10-19T05:43:20.243Z,62.78
2017-10-19T05:44:26.486Z,55.72
2017-10-19T05:45:32.346Z,61.85
2017-10-19T05:46:38.187Z,55.90
2017-10-19T05:47:43.991Z,61.83
2017-10-19T05:48:49.779Z,58.22
2017-10-19T05:49:55.784Z,62.35
2017-10-19T05:51:01.573Z,56.85
2017-10-19T05:52:08.229Z,62.72
2017-10-19T05:53:14.008Z,57.50
2017-10-19T05:54:20.288Z,60.33
2017-10-19T05:55:26.167Z,58.75
2017-10-19T05:56:32.062Z,52.58
2017-10-19T05:57:38.033Z,57.47
2017-10-19T05:58:43.896Z,60.03
2017-10-19T05:59:49.773Z,57.85
2017-10-19T06:00:55.748Z,55.70
2017-10-19T06:02:01.649Z,59.38
2017-10-19T06:03:07.568Z,53.70
2017-10-19T06:04:13.544Z,53.13
2017-10-19T06:05:19.530Z,52.80
2017-10-19T06:06:26.228Z,58.42
2017-10-19T06:07:32.125Z,53.22
2017-10-19T06:08:38.796Z,58.30
2017-10-19T06:09:45.349Z,54.67
2017-10-19T06:10:52.147Z,50.85
2017-10-19T06:11:57.940Z,53.00
2017-10-19T06:13:04.496Z,50.85
2017-10-19T06:14:10.308Z,49.95
2017-10-19T06:15:16.086Z,54.33
2017-10-19T06:16:21.864Z,53.45
2017-10-19T06:17:35.050Z,53.33
2017-10-19T06:18:40.836Z,50.95
2017-10-19T06:20:01.148Z,50.75
2017-10-19T06:21:07.497Z,49.88
2017-10-19T06:22:13.292Z,45.10
2017-10-19T06:23:19.721Z,46.75
2017-10-19T06:24:26.641Z,53.55
2017-10-19T06:25:32.681Z,48.38
2017-10-19T06:26:38.513Z,46.22
2017-10-19T06:27:44.318Z,47.25
2017-10-19T06:28:50.142Z,46.72
2017-10-19T06:29:55.914Z,52.03
2017-10-19T06:31:01.724Z,47.33
2017-10-19T06:32:07.511Z,45.72
2017-10-19T06:33:14.108Z,49.72
2017-10-19T06:34:19.993Z,53.22
2017-10-19T06:35:25.793Z,46.83
2017-10-19T06:36:31.676Z,48.92
2017-10-19T06:37:37.461Z,43.22
2017-10-19T06:38:43.253Z,53.58
2017-10-19T06:39:50.560Z,46.53
2017-10-19T06:40:57.114Z,49.92
2017-10-19T06:42:03.696Z,45.95
2017-10-19T06:43:10.046Z,48.28
2017-10-19T06:44:16.604Z,52.53
2017-10-19T06:45:23.170Z,48.78
2017-10-19T06:46:29.734Z,54.03
2017-10-19T06:47:35.544Z,46.95
2017-10-19T06:48:41.338Z,45.97
2017-10-19T06:49:47.128Z,45.58
2017-10-19T06:50:52.911Z,47.85
2017-10-19T06:51:58.766Z,45.08
2017-10-19T06:53:04.588Z,42.97
2017-10-19T06:54:10.384Z,46.28
2017-10-19T06:55:16.177Z,45.40
2017-10-19T06:56:22.737Z,42.60
2017-10-19T06:57:28.516Z,46.80
2017-10-19T06:58:34.330Z,46.55
2017-10-19T06:59:40.107Z,48.97
2017-10-19T07:00:45.440Z,45.20
2017-10-19T07:01:51.226Z,44.00
2017-10-19T07:02:57.793Z,44.67
2017-10-19T07:04:04.370Z,45.80
2017-10-19T07:05:10.167Z,48.05
2017-10-19T07:06:15.978Z,46.40
2017-10-19T07:07:21.789Z,47.28
2017-10-19T07:08:27.574Z,46.83
2017-10-19T07:09:33.397Z,48.35
2017-10-19T07:10:39.202Z,46.65
2017-10-19T07:11:45.769Z,44.70
2017-10-19T07:12:52.391Z,47.25
2017-10-19T07:13:58.204Z,42.90
2017-10-19T07:15:04.028Z,47.80
2017-10-19T07:16:09.808Z,41.55
2017-10-19T07:17:15.606Z,48.00
2017-10-19T07:18:21.384Z,47.53
2017-10-19T07:19:27.200Z,44.95
2017-10-19T07:20:33.020Z,43.72
2017-10-19T07:21:39.564Z,43.65
2017-10-19T07:22:45.346Z,44.90
2017-10-19T07:23:51.136Z,44.30
2017-10-19T07:24:57.567Z,42.45
2017-10-19T07:26:03.392Z,40.28
2017-10-19T07:27:09.183Z,44.58
2017-10-19T07:28:14.363Z,40.97
2017-10-19T07:29:20.155Z,42.85
2017-10-19T07:30:25.264Z,45.05
2017-10-19T07:31:31.104Z,41.75
2017-10-19T07:32:36.564Z,40.38
2017-10-19T07:33:43.175Z,41.22
2017-10-19T07:34:48.967Z,40.78
2017-10-19T07:35:54.799Z,39.85
2017-10-19T07:37:00.624Z,42.08
2017-10-19T07:38:06.408Z,40.55
2017-10-19T07:39:12.993Z,41.83
2017-10-19T07:40:18.779Z,40.67
2017-10-19T07:41:24.588Z,40.53
2017-10-19T07:42:30.439Z,39.45
2017-10-19T07:43:36.232Z,38.58
2017-10-19T07:44:42.016Z,40.28
2017-10-19T07:46:11.263Z,39.67
2017-10-19T07:47:20.110Z,33.08
2017-10-19T07:48:26.130Z,33.00
2017-10-19T07:49:32.692Z,32.38
2017-10-19T07:50:39.247Z,32.80
2017-10-19T07:51:44.692Z,30.52
2017-10-19T07:52:51.246Z,31.45
2017-10-19T07:53:57.692Z,29.83
2017-10-19T07:55:03.468Z,29.48
2017-10-19T07:56:09.269Z,30.35
2017-10-19T07:57:15.056Z,30.60
2017-10-19T07:58:20.853Z,30.10
2017-10-19T07:59:26.664Z,30.02
2017-10-19T08:00:32.511Z,30.75
2017-10-19T08:01:38.291Z,30.40
2017-10-19T08:02:44.068Z,29.25
2017-10-19T08:03:50.622Z,30.90
2017-10-19T08:04:57.189Z,30.27
2017-10-19T08:06:03.825Z,31.85
2017-10-19T08:07:09.422Z,28.17
2017-10-19T08:08:15.029Z,29.65
2017-10-19T08:09:20.883Z,28.65
2017-10-19T08:10:26.692Z,30.10
2017-10-19T08:11:33.399Z,30.33
2017-10-19T08:12:39.000Z,29.70
2017-10-19T08:13:45.557Z,29.25
2017-10-19T08:14:51.340Z,29.05
2017-10-19T08:15:57.148Z,29.77
2017-10-19T08:17:03.524Z,29.85
2017-10-19T08:18:09.317Z,28.30
2017-10-19T08:19:15.089Z,29.00
2017-10-19T08:20:21.637Z,29.17
2017-10-19T08:21:27.440Z,29.12
2017-10-19T08:22:33.229Z,28.85
2017-10-19T08:23:39.104Z,29.30
2017-10-19T08:24:44.878Z,27.95
2017-10-19T08:25:50.656Z,29.27
2017-10-19T08:26:57.061Z,31.40
2017-10-19T08:28:02.852Z,30.30
2017-10-19T08:29:09.231Z,31.33
2017-10-19T08:30:15.782Z,28.67
2017-10-19T08:31:22.331Z,28.55
2017-10-19T08:32:28.183Z,28.92
2017-10-19T08:33:34.721Z,29.60
2017-10-19T08:34:41.265Z,29.45
2017-10-19T08:35:47.055Z,29.35
2017-10-19T08:36:53.608Z,32.80
2017-10-19T08:38:00.184Z,29.42
2017-10-19T08:39:05.619Z,27.30
2017-10-19T08:40:11.399Z,32.42
2017-10-19T08:41:17.185Z,28.90
2017-10-19T08:42:23.740Z,30.75
2017-10-19T08:43:30.134Z,30.35
2017-10-19T08:44:35.909Z,29.50
2017-10-19T08:45:41.685Z,30.42
2017-10-19T08:46:48.239Z,30.05
2017-10-19T08:47:54.785Z,30.80
2017-10-19T08:49:00.601Z,32.28
2017-10-19T08:50:06.381Z,30.62
2017-10-19T08:51:12.168Z,29.50
2017-10-19T08:52:17.938Z,31.30
2017-10-19T08:53:23.720Z,32.30
2017-10-19T08:54:30.302Z,34.60
2017-10-19T08:55:36.094Z,32.03
2017-10-19T08:56:41.880Z,31.20
2017-10-19T08:57:47.727Z,30.85
2017-10-19T08:58:53.516Z,32.25
2017-10-19T08:59:59.348Z,32.80
2017-10-19T09:01:05.165Z,32.05
2017-10-19T09:02:10.950Z,31.37
2017-10-19T09:03:16.555Z,31.15
2017-10-19T09:04:22.339Z,29.60
2017-10-19T09:05:28.154Z,29.45
2017-10-19T09:06:33.939Z,30.30
2017-10-19T09:07:39.723Z,29.27
2017-10-19T09:08:45.509Z,28.15
2017-10-19T09:09:51.285Z,29.30
2017-10-19T09:10:57.083Z,33.53
2017-10-19T09:12:02.885Z,26.62
2017-10-19T09:13:08.668Z,26.60
2017-10-19T09:14:15.963Z,30.08
2017-10-19T09:15:22.511Z,27.25
2017-10-19T09:16:28.315Z,27.67
2017-10-19T09:17:34.097Z,27.92
2017-10-19T09:18:39.884Z,27.27
2017-10-19T09:19:45.658Z,28.35
2017-10-19T09:20:51.449Z,26.73
2017-10-19T09:21:57.261Z,27.70
2017-10-19T09:23:03.051Z,27.90
2017-10-19T09:24:08.910Z,26.95
2017-10-19T09:25:14.518Z,26.87
2017-10-19T09:26:20.344Z,27.75
2017-10-19T09:27:26.236Z,26.42
2017-10-19T09:28:32.017Z,26.85
2017-10-19T09:29:37.819Z,25.85
2017-10-19T09:30:43.599Z,26.48
2017-10-19T09:31:49.381Z,25.42
2017-10-19T09:32:55.200Z,25.30
2017-10-19T09:34:00.980Z,25.48
2017-10-19T09:35:06.751Z,26.20
2017-10-19T09:36:12.550Z,27.90
2017-10-19T09:37:18.324Z,25.40
2017-10-19T09:38:24.179Z,26.05
2017-10-19T09:39:29.790Z,26.87
2017-10-19T09:40:35.596Z,25.95
2017-10-19T09:41:42.148Z,25.35
2017-10-19T09:42:49.260Z,25.27
2017-10-19T09:43:55.106Z,26.17
2017-10-19T09:45:00.955Z,24.80
2017-10-19T09:46:06.743Z,26.00
2017-10-19T09:47:12.528Z,27.92
2017-10-19T09:48:18.132Z,24.35
2017-10-19T09:49:24.699Z,24.42
2017-10-19T09:50:31.244Z,24.40
2017-10-19T09:51:37.028Z,24.23
2017-10-19T09:52:42.963Z,24.75
2017-10-19T09:53:49.744Z,25.88
2017-10-19T09:54:55.556Z,24.70
2017-10-19T09:56:02.138Z,23.30
2017-10-19T09:57:07.918Z,23.87
2017-10-19T09:58:13.729Z,22.80
2017-10-19T09:59:19.517Z,23.20
2017-10-19T10:00:25.334Z,21.30
2017-10-19T10:01:31.116Z,21.95
2017-10-19T10:02:36.902Z,20.95
2017-10-19T10:03:42.681Z,20.73
2017-10-19T10:04:48.466Z,19.73
2017-10-19T10:05:55.038Z,21.30
2017-10-19T10:07:00.816Z,21.95
2017-10-19T10:08:06.595Z,20.20
2017-10-19T10:09:12.635Z,20.80
2017-10-19T10:10:18.419Z,21.10
2017-10-19T10:11:24.227Z,21.15
2017-10-19T10:12:30.034Z,21.80
2017-10-19T10:13:35.833Z,21.50
2017-10-19T10:14:42.379Z,20.20
2017-10-19T10:15:48.925Z,21.30
2017-10-19T10:16:54.738Z,21.40
2017-10-19T10:18:00.524Z,20.05
2017-10-19T10:19:07.092Z,22.60
2017-10-19T10:20:12.893Z,21.10
2017-10-19T10:21:18.678Z,21.35
2017-10-19T10:22:25.271Z,20.35
2017-10-19T10:23:31.058Z,19.90
2017-10-19T10:24:38.454Z,20.05
2017-10-19T10:25:45.003Z,20.48
2017-10-19T10:26:50.794Z,21.92
2017-10-19T10:27:56.626Z,19.30
2017-10-19T10:29:02.434Z,19.40
2017-10-19T10:30:09.030Z,19.58
2017-10-19T10:31:14.872Z,16.98
2017-10-19T10:32:20.701Z,17.05
2017-10-19T10:33:26.559Z,18.25
2017-10-19T10:34:32.336Z,17.50
2017-10-19T10:35:38.140Z,17.90
2017-10-19T10:36:43.937Z,17.70
2017-10-19T10:37:49.730Z,17.33
2017-10-19T10:38:55.546Z,16.77
2017-10-19T10:40:02.117Z,17.17
2017-10-19T10:41:07.913Z,16.85
2017-10-19T10:42:13.755Z,18.37
2017-10-19T10:43:19.538Z,17.17
2017-10-19T10:44:26.131Z,16.60
2017-10-19T10:45:31.912Z,16.33
2017-10-19T10:46:38.485Z,17.25
2017-10-19T10:47:45.044Z,16.92
2017-10-19T10:48:50.847Z,17.08
2017-10-19T10:49:56.321Z,15.55
2017-10-19T10:51:01.988Z,15.30
2017-10-19T10:52:07.157Z,18.10
2017-10-19T10:53:12.975Z,17.42
2017-10-19T10:54:18.765Z,18.23
2017-10-19T10:55:24.576Z,14.35
2017-10-19T10:56:30.189Z,16.17
2017-10-19T10:57:35.998Z,14.82
2017-10-19T10:58:41.808Z,16.55
2017-10-19T10:59:47.686Z,16.85
2017-10-19T11:00:54.307Z,16.35
2017-10-19T11:02:00.087Z,16.62
2017-10-19T11:03:05.881Z,14.55
2017-10-19T11:04:11.715Z,15.38
2017-10-19T11:05:17.501Z,15.88
2017-10-19T11:06:23.321Z,15.85
2017-10-19T11:07:29.107Z,14.95
2017-10-19T11:08:35.670Z,16.52
2017-10-19T11:09:42.061Z,15.20
2017-10-19T11:10:47.666Z,14.90
2017-10-19T11:11:54.247Z,14.35
2017-10-19T11:13:00.042Z,14.43
2017-10-19T11:14:05.859Z,12.88
2017-10-19T11:15:11.651Z,12.90
2017-10-19T11:16:18.208Z,13.32
2017-10-19T11:17:24.805Z,12.90
2017-10-19T11:18:30.624Z,14.63
2017-10-19T11:19:37.193Z,12.90
2017-10-19T11:20:43.743Z,12.60
2017-10-19T11:21:50.294Z,12.65
2017-10-19T11:22:56.170Z,12.95
2017-10-19T11:24:01.969Z,13.13
2017-10-19T11:25:07.757Z,12.90
2017-10-19T11:26:13.832Z,13.90
2017-10-19T11:27:19.628Z,14.50
2017-10-19T11:28:26.214Z,12.95
2017-10-19T11:29:32.010Z,12.55
2017-10-19T11:30:37.794Z,12.55
2017-10-19T11:31:43.585Z,14.35
2017-10-19T11:32:49.371Z,13.05
2017-10-19T11:33:55.196Z,14.60
2017-10-19T11:35:01.566Z,14.30
2017-10-19T11:36:08.128Z,14.40
2017-10-19T11:37:13.911Z,14.13
2017-10-19T11:38:19.709Z,13.55
2017-10-19T11:39:25.533Z,13.65
2017-10-19T11:40:32.090Z,13.20
2017-10-19T11:41:37.881Z,12.63
2017-10-19T11:42:43.679Z,14.38
2017-10-19T11:43:50.230Z,14.40
2017-10-19T11:44:56.077Z,16.33
2017-10-19T11:46:02.634Z,15.20
2017-10-19T11:47:09.933Z,15.48
2017-10-19T11:48:15.727Z,15.43
2017-10-19T11:49:21.232Z,15.98
2017-10-19T11:50:27.049Z,15.40
2017-10-19T11:51:33.594Z,19.25
2017-10-19T11:52:39.394Z,18.37
2017-10-19T11:53:44.972Z,21.85
2017-10-19T11:54:50.881Z,19.25
2017-10-19T11:55:56.695Z,18.58
2017-10-19T11:57:02.492Z,18.50
2017-10-19T11:58:08.376Z,19.05
2017-10-19T11:59:14.164Z,18.55
2017-10-19T12:00:19.782Z,17.00
2017-10-19T12:01:25.592Z,16.90
2017-10-19T12:02:32.153Z,19.62
2017-10-19T12:03:38.720Z,18.87
2017-10-19T12:04:44.518Z,15.43
2017-10-19T12:05:50.300Z,13.95
2017-10-19T12:06:56.878Z,14.73
2017-10-19T12:08:02.682Z,15.50
2017-10-19T12:09:09.234Z,14.75
2017-10-19T12:10:15.031Z,14.65
2017-10-19T12:11:20.866Z,14.32
2017-10-19T12:12:26.690Z,12.68
2017-10-19T12:13:33.240Z,13.05
2017-10-19T12:14:39.796Z,14.73
2017-10-19T12:15:45.587Z,13.13
2017-10-19T12:16:51.413Z,15.70
2017-10-19T12:17:57.227Z,12.32
2017-10-19T12:19:03.775Z,12.70
2017-10-19T12:20:09.573Z,14.25
2017-10-19T12:21:15.356Z,12.20
2017-10-19T12:22:21.907Z,10.95
2017-10-19T12:23:27.756Z,10.65
2017-10-19T12:24:33.548Z,10.30
2017-10-19T12:25:40.092Z,11.25
2017-10-19T12:26:46.643Z,12.18
2017-10-19T12:27:53.183Z,10.07
2017-10-19T12:28:58.985Z,9.88
2017-10-19T12:30:04.762Z,9.13
2017-10-19T12:31:10.527Z,9.63
2017-10-19T12:32:16.301Z,9.25
2017-10-19T12:33:22.073Z,8.88
2017-10-19T12:34:27.950Z,10.90
2017-10-19T12:35:33.724Z,6.75
2017-10-19T12:36:39.487Z,7.97
2017-10-19T12:37:45.296Z,7.47
2017-10-19T12:38:51.839Z,11.02
2017-10-19T12:39:57.636Z,7.90
2017-10-19T12:41:03.395Z,7.30
2017-10-19T12:42:09.164Z,7.65
2017-10-19T12:43:14.933Z,8.75
2017-10-19T12:44:20.712Z,9.48
2017-10-19T12:45:26.510Z,6.35
2017-10-19T12:46:33.049Z,6.68
2017-10-19T12:48:47.492Z,7.35
2017-10-19T12:49:54.009Z,6.55
2017-10-19T12:50:59.793Z,7.18
2017-10-19T12:52:06.352Z,6.53
2017-10-19T12:53:12.864Z,6.32
2017-10-19T12:54:18.617Z,6.03
2017-10-19T12:55:24.371Z,5.87
2017-10-19T12:56:30.172Z,6.25
2017-10-19T12:57:35.917Z,6.47
2017-10-19T12:58:41.553Z,7.37
2017-10-19T12:59:47.298Z,6.40
2017-10-19T13:00:53.072Z,6.65
2017-10-19T13:01:59.098Z,6.72
2017-10-19T13:03:04.837Z,7.20
2017-10-19T13:04:10.601Z,11.30
2017-10-19T13:05:16.355Z,8.82
2017-10-19T13:06:22.105Z,7.12
2017-10-19T13:07:27.888Z,8.05
2017-10-19T13:08:33.637Z,6.80
2017-10-19T13:09:39.439Z,6.50
2017-10-19T13:10:45.017Z,5.93
2017-10-19T13:11:50.783Z,7.00
2017-10-19T13:12:56.559Z,5.95
2017-10-19T13:14:03.090Z,6.00
2017-10-19T13:15:08.851Z,6.22
2017-10-19T13:16:14.421Z,9.50
2017-10-19T13:17:20.187Z,9.10
2017-10-19T13:18:25.976Z,5.25
2017-10-19T13:19:32.492Z,6.35
2017-10-19T13:20:38.246Z,6.45
2017-10-19T13:21:43.992Z,10.25
2017-10-19T13:22:49.761Z,5.72
2017-10-19T13:23:55.546Z,9.30
2017-10-19T13:25:01.290Z,8.88
2017-10-19T13:26:07.033Z,9.50
2017-10-19T13:27:12.768Z,7.25
2017-10-19T13:28:18.521Z,6.90
2017-10-19T13:29:24.307Z,6.85
2017-10-19T13:30:30.048Z,5.30
2017-10-19T13:31:35.820Z,5.40
2017-10-19T13:32:41.572Z,5.78
2017-10-19T13:33:47.307Z,7.28
2017-10-19T13:34:53.089Z,6.28
2017-10-19T13:35:58.845Z,5.90
2017-10-19T13:37:04.592Z,6.57
2017-10-19T13:38:10.331Z,7.25
2017-10-19T13:39:16.106Z,6.60
2017-10-19T13:40:21.888Z,5.30
2017-10-19T13:41:27.654Z,6.47
2017-10-19T13:42:34.909Z,5.45
2017-10-19T13:43:40.669Z,5.82
2017-10-19T13:44:47.985Z,7.03
2017-10-19T13:45:54.537Z,5.93
2017-10-19T13:47:01.054Z,4.85
2017-10-19T13:48:06.805Z,5.97
2017-10-19T13:49:12.573Z,6.20
2017-10-19T13:50:19.148Z,5.07
2017-10-19T13:51:24.928Z,6.72
2017-10-19T13:52:30.685Z,5.47
2017-10-19T13:53:36.483Z,6.45
2017-10-19T13:54:42.238Z,5.20
2017-10-19T13:55:47.985Z,5.47
2017-10-19T13:56:53.777Z,5.45
2017-10-19T13:58:00.360Z,6.05
2017-10-19T13:59:06.124Z,5.90
2017-10-19T14:00:11.888Z,4.82
2017-10-19T14:01:17.640Z,17.08
2017-10-19T14:02:23.422Z,5.47
2017-10-19T14:03:29.173Z,6.60
2017-10-19T14:04:34.931Z,7.53
2017-10-19T14:05:40.677Z,5.57
2017-10-19T14:06:46.446Z,5.62
2017-10-19T14:07:52.233Z,11.82
2017-10-19T14:08:57.981Z,7.00
2017-10-19T14:10:03.745Z,5.87
2017-10-19T14:11:09.486Z,9.32
2017-10-19T14:12:15.270Z,8.50
2017-10-19T14:13:21.317Z,5.75